createdAt,value
2022-09-21T00:00:58.512Z,10.3
2022-09-21T00:02:01.929Z,10.3
2022-09-21T00:02:56.406Z,10.3
2022-09-21T00:03:58.821Z,10.3
2022-09-21T00:04:56.577Z,10.2
2022-09-21T00:05:56.505Z,10.2
2022-09-21T00:06:58.470Z,10.2
2022-09-21T00:07:57.205Z,10.3
2022-09-21T00:08:56.597Z,10.2
2022-09-21T00:09:58.586Z,10.2
2022-09-21T00:10:57.359Z,10.1
2022-09-21T00:11:58.337Z,10.1
2022-09-21T00:12:58.780Z,10.1
2022-09-21T00:13:57.880Z,10.1
2022-09-21T00:15:00.735Z,10.2
2022-09-21T00:16:32.440Z,10.2
2022-09-21T00:16:56.849Z,10.1
2022-09-21T00:18:00.381Z,10.1
2022-09-21T00:19:19.793Z,10.1
2022-09-21T00:19:56.891Z,10.2
2022-09-21T00:20:57.498Z,10.1
2022-09-21T00:22:21.905Z,10.1
2022-09-21T00:22:58.400Z,10
2022-09-21T00:23:57.321Z,10
2022-09-21T00:25:25.831Z,10
2022-09-21T00:25:57.526Z,10
2022-09-21T00:27:00.719Z,10.1
2022-09-21T00:28:06.437Z,10
2022-09-21T00:28:57.237Z,10.1
2022-09-21T00:30:00.532Z,10.1
2022-09-21T00:31:15.296Z,10.1
2022-09-21T00:31:57.462Z,10
2022-09-21T00:32:57.660Z,9.9
2022-09-21T00:34:12.070Z,10
2022-09-21T00:34:59.337Z,10.1
2022-09-21T00:35:57.465Z,10.1
2022-09-21T00:36:57.487Z,10.1
2022-09-21T00:38:05.036Z,10
2022-09-21T00:38:57.497Z,10
2022-09-21T00:39:58.525Z,9.9
2022-09-21T00:41:00.261Z,9.9
2022-09-21T00:41:58.690Z,9.8
2022-09-21T00:43:14.322Z,9.8
2022-09-21T00:43:57.728Z,9.8
2022-09-21T00:44:58.530Z,9.8
2022-09-21T00:46:41.219Z,9.8
2022-09-21T00:46:57.979Z,9.8
2022-09-21T00:48:01.816Z,9.8
2022-09-21T00:48:59.900Z,9.7
2022-09-21T00:50:00.646Z,9.7
2022-09-21T00:50:58.241Z,9.7
2022-09-21T00:52:25.298Z,9.7
2022-09-21T00:53:00.157Z,9.7
2022-09-21T00:53:58.412Z,9.7
2022-09-21T00:55:26.264Z,9.6
2022-09-21T00:55:58.739Z,9.6
2022-09-21T00:57:01.151Z,9.5
2022-09-21T00:58:12.167Z,9.5
2022-09-21T00:59:01.394Z,9.5
2022-09-21T01:00:00.795Z,9.4
2022-09-21T01:00:59.549Z,9.1
2022-09-21T01:01:59.019Z,8.9
2022-09-21T01:02:58.878Z,9
2022-09-21T01:04:00.118Z,9.1
2022-09-21T01:04:58.915Z,9.2
2022-09-21T01:06:00.486Z,9.4
2022-09-21T01:06:59.094Z,9.3
2022-09-21T01:08:05.759Z,9.2
2022-09-21T01:08:59.134Z,9
2022-09-21T01:09:59.087Z,8.7
2022-09-21T01:11:01.036Z,8.6
2022-09-21T01:11:59.523Z,8.6
2022-09-21T01:12:59.247Z,8.6
2022-09-21T01:13:59.236Z,8.8
2022-09-21T01:14:59.419Z,8.9
2022-09-21T01:15:59.358Z,8.9
2022-09-21T01:16:59.314Z,9
2022-09-21T01:18:01.748Z,9
2022-09-21T01:18:59.598Z,9.1
2022-09-21T01:20:03.937Z,9.1
2022-09-21T01:20:59.501Z,9.1
2022-09-21T01:22:00.833Z,9.2
2022-09-21T01:23:00.138Z,9.3
2022-09-21T01:23:59.612Z,9.4
2022-09-21T01:24:59.582Z,9.4
2022-09-21T01:25:59.620Z,9.3
2022-09-21T01:26:59.624Z,9.4
2022-09-21T01:28:02.639Z,9.2
2022-09-21T01:29:03.258Z,8.8
2022-09-21T01:30:03.048Z,8.5
2022-09-21T01:31:01.119Z,8.5
2022-09-21T01:31:59.812Z,8.8
2022-09-21T01:33:03.654Z,9
2022-09-21T01:34:01.671Z,9
2022-09-21T01:35:01.166Z,9
2022-09-21T01:36:03.005Z,9.1
2022-09-21T01:37:01.997Z,9.1
2022-09-21T01:38:03.899Z,9.1
2022-09-21T01:39:02.479Z,9.1
2022-09-21T01:40:00.268Z,9
2022-09-21T01:41:05.444Z,9
2022-09-21T01:42:02.445Z,9.1
2022-09-21T01:43:02.176Z,9.2
2022-09-21T01:44:00.686Z,9.3
2022-09-21T01:45:00.535Z,9.2
2022-09-21T01:46:00.456Z,9.1
2022-09-21T01:47:04.735Z,9
2022-09-21T01:48:01.775Z,9
2022-09-21T01:49:07.596Z,8.9
2022-09-21T01:50:00.654Z,8.9
2022-09-21T01:51:05.904Z,9
2022-09-21T01:52:01.984Z,9.1
2022-09-21T01:53:06.689Z,9.2
2022-09-21T01:54:00.485Z,9.1
2022-09-21T01:55:07.610Z,9
2022-09-21T01:56:02.352Z,9.1
2022-09-21T01:57:06.314Z,8.8
2022-09-21T01:58:09.062Z,8.6
2022-09-21T01:59:02.097Z,8.8
2022-09-21T02:00:00.888Z,9
2022-09-21T02:01:00.990Z,8.9
2022-09-21T02:02:01.610Z,8.9
2022-09-21T02:03:03.754Z,8.8
2022-09-21T02:04:01.387Z,8.7
2022-09-21T02:05:05.634Z,8.8
2022-09-21T02:06:01.244Z,8.9
2022-09-21T02:07:06.751Z,8.9
2022-09-21T02:08:05.754Z,9
2022-09-21T02:09:07.367Z,9
2022-09-21T02:10:01.632Z,9
2022-09-21T02:11:06.870Z,8.9
2022-09-21T02:12:01.666Z,9
2022-09-21T02:13:04.604Z,9.1
2022-09-21T02:14:01.948Z,9
2022-09-21T02:15:03.901Z,9
2022-09-21T02:16:01.749Z,9.1
2022-09-21T02:17:02.539Z,9.1
2022-09-21T02:18:01.869Z,9.2
2022-09-21T02:19:05.799Z,9.2
2022-09-21T02:20:06.845Z,9.2
2022-09-21T02:21:06.645Z,9.2
2022-09-21T02:22:01.939Z,8.9
2022-09-21T02:23:08.758Z,8.6
2022-09-21T02:24:02.142Z,8.5
2022-09-21T02:25:04.782Z,8.6
2022-09-21T02:26:02.543Z,8.7
2022-09-21T02:27:06.398Z,8.7
2022-09-21T02:28:06.843Z,8.8
2022-09-21T02:29:08.137Z,8.7
2022-09-21T02:30:02.213Z,8.8
2022-09-21T02:31:15.340Z,8.9
2022-09-21T02:32:02.586Z,8.9
2022-09-21T02:33:13.388Z,8.9
2022-09-21T02:34:02.719Z,8.8
2022-09-21T02:35:28.668Z,8.6
2022-09-21T02:36:05.064Z,8.6
2022-09-21T02:37:15.443Z,8.5
2022-09-21T02:38:19.101Z,8.6
2022-09-21T02:39:15.701Z,8.5
2022-09-21T02:40:03.156Z,8.4
2022-09-21T02:41:04.906Z,8.5
2022-09-21T02:42:10.349Z,8.7
2022-09-21T02:43:03.008Z,8.7
2022-09-21T02:44:11.119Z,8.4
2022-09-21T02:45:03.862Z,8.2
2022-09-21T02:46:02.764Z,8.4
2022-09-21T02:47:06.573Z,8.4
2022-09-21T02:48:26.184Z,8.3
2022-09-21T02:49:04.725Z,8.3
2022-09-21T02:50:10.618Z,8.2
2022-09-21T02:51:02.925Z,8.1
2022-09-21T02:52:02.959Z,8.3
2022-09-21T02:53:05.893Z,8.4
2022-09-21T02:54:03.042Z,8.5
2022-09-21T02:55:03.587Z,8.4
2022-09-21T02:56:16.500Z,8.5
2022-09-21T02:57:04.650Z,8.4
2022-09-21T02:58:10.733Z,8.2
2022-09-21T02:59:14.547Z,8.1
2022-09-21T03:00:03.192Z,8.3
2022-09-21T03:01:03.259Z,8.2
2022-09-21T03:02:17.682Z,8.1
2022-09-21T03:03:05.008Z,8
2022-09-21T03:04:05.566Z,8
2022-09-21T03:05:22.204Z,8
2022-09-21T03:06:04.536Z,7.9
2022-09-21T03:07:03.546Z,8.1
2022-09-21T03:08:36.633Z,8.1
2022-09-21T03:09:05.693Z,7.9
2022-09-21T03:10:05.656Z,8
2022-09-21T03:11:38.064Z,7.9
2022-09-21T03:12:08.342Z,7.8
2022-09-21T03:13:03.947Z,7.7
2022-09-21T03:14:14.429Z,7.6
2022-09-21T03:15:12.108Z,7.5
2022-09-21T03:16:20.373Z,7.4
2022-09-21T03:18:03.167Z,7.4
2022-09-21T03:18:47.683Z,7.4
2022-09-21T03:19:13.296Z,7.4
2022-09-21T03:22:46.337Z,7.6
2022-09-21T03:23:04.422Z,7.5
2022-09-21T03:24:04.449Z,7.7
2022-09-21T03:25:04.539Z,7.6
2022-09-21T03:26:04.549Z,7.5
2022-09-21T03:27:04.607Z,7.5
2022-09-21T03:28:04.622Z,7.6
2022-09-21T03:29:04.802Z,7.7
2022-09-21T03:30:04.667Z,7.7
2022-09-21T03:31:04.788Z,7.7
2022-09-21T03:32:04.764Z,7.5
2022-09-21T03:33:04.784Z,7.6
2022-09-21T03:34:04.810Z,7.6
2022-09-21T03:35:04.865Z,7.7
2022-09-21T03:36:04.860Z,7.8
2022-09-21T03:37:04.935Z,7.8
2022-09-21T03:38:04.981Z,7.8
2022-09-21T03:39:04.986Z,7.6
2022-09-21T03:40:05.089Z,7.6
2022-09-21T03:41:05.054Z,7.8
2022-09-21T03:42:05.119Z,7.8
2022-09-21T03:43:05.160Z,7.7
2022-09-21T03:44:05.177Z,7.7
2022-09-21T03:45:05.189Z,7.7
2022-09-21T03:46:05.249Z,7.8
2022-09-21T03:47:05.264Z,7.7
2022-09-21T03:48:05.311Z,7.7
2022-09-21T03:49:05.326Z,7.7
2022-09-21T03:50:09.206Z,7.7
2022-09-21T03:51:05.390Z,7.5
2022-09-21T03:52:05.887Z,7.4
2022-09-21T03:53:05.494Z,7.5
2022-09-21T03:54:05.527Z,7.5
2022-09-21T03:55:05.552Z,7.5
2022-09-21T03:56:05.589Z,7.4
2022-09-21T03:57:05.616Z,7.4
2022-09-21T03:58:05.645Z,7.5
2022-09-21T03:59:05.673Z,7.6
2022-09-21T04:00:05.718Z,7.7
2022-09-21T04:01:05.777Z,7.8
2022-09-21T04:02:05.821Z,7.8
2022-09-21T04:03:05.843Z,7.7
2022-09-21T04:04:05.908Z,7.8
2022-09-21T04:05:05.961Z,7.9
2022-09-21T04:06:05.953Z,7.9
2022-09-21T04:07:05.948Z,7.8
2022-09-21T04:08:06.061Z,7.7
2022-09-21T04:09:11.079Z,7.8
2022-09-21T04:10:08.203Z,7.7
2022-09-21T04:11:11.170Z,7.6
2022-09-21T04:12:06.415Z,7.5
2022-09-21T04:13:10.496Z,7.6
2022-09-21T04:14:06.210Z,7.7
2022-09-21T04:15:06.541Z,7.5
2022-09-21T04:16:06.697Z,7.3
2022-09-21T04:17:10.359Z,7.4
2022-09-21T04:18:06.738Z,7.2
2022-09-21T04:19:11.530Z,7.3
2022-09-21T04:20:12.245Z,7.3
2022-09-21T04:21:11.970Z,7.2
2022-09-21T04:22:07.106Z,7.2
2022-09-21T04:23:21.493Z,7
2022-09-21T04:24:11.874Z,7
2022-09-21T04:26:06.616Z,7
2022-09-21T04:26:08.628Z,6.9
2022-09-21T04:27:11.987Z,7
2022-09-21T04:28:07.213Z,6.9
2022-09-21T04:29:08.963Z,7
2022-09-21T04:31:29.130Z,6.9
2022-09-21T04:32:07.253Z,6.9
2022-09-21T04:33:07.432Z,7.2
2022-09-21T04:34:09.511Z,7.3
2022-09-21T04:35:08.676Z,7.3
2022-09-21T04:36:09.225Z,7.4
2022-09-21T04:37:09.163Z,7.5
2022-09-21T04:38:09.486Z,7.6
2022-09-21T04:39:12.463Z,7.6
2022-09-21T04:40:15.515Z,7.7
2022-09-21T04:41:07.576Z,7.5
2022-09-21T04:42:12.586Z,7.4
2022-09-21T04:43:07.601Z,7.3
2022-09-21T04:44:07.993Z,7.3
2022-09-21T04:45:07.661Z,7.1
2022-09-21T04:46:07.746Z,7
2022-09-21T04:47:07.734Z,7
2022-09-21T04:48:07.737Z,6.8
2022-09-21T04:49:07.798Z,6.7
2022-09-21T04:50:08.039Z,6.7
2022-09-21T04:51:07.969Z,6.9
2022-09-21T04:52:09.748Z,6.9
2022-09-21T04:53:07.977Z,6.9
2022-09-21T04:54:07.938Z,7
2022-09-21T04:55:07.987Z,7.1
2022-09-21T04:56:08.331Z,7
2022-09-21T04:57:09.828Z,6.8
2022-09-21T04:58:08.296Z,6.7
2022-09-21T04:59:08.133Z,6.7
2022-09-21T05:00:10.778Z,6.7
2022-09-21T05:01:08.288Z,6.9
2022-09-21T05:02:08.481Z,6.9
2022-09-21T05:03:09.842Z,6.8
2022-09-21T05:04:08.356Z,6.8
2022-09-21T05:05:09.619Z,6.7
2022-09-21T05:06:08.635Z,6.6
2022-09-21T05:07:08.713Z,6.5
2022-09-21T05:08:08.690Z,6.5
2022-09-21T05:09:08.583Z,6.5
2022-09-21T05:10:08.486Z,6.7
2022-09-21T05:11:08.616Z,6.7
2022-09-21T05:12:09.797Z,6.8
2022-09-21T05:13:09.044Z,6.8
2022-09-21T05:14:08.656Z,6.8
2022-09-21T05:15:09.761Z,6.8
2022-09-21T05:16:08.821Z,6.6
2022-09-21T05:17:08.750Z,6.6
2022-09-21T05:18:08.848Z,6.4
2022-09-21T05:19:08.844Z,6.3
2022-09-21T05:20:13.844Z,6.4
2022-09-21T05:21:14.837Z,6.5
2022-09-21T05:22:08.948Z,6.6
2022-09-21T05:23:10.833Z,6.7
2022-09-21T05:24:09.994Z,6.8
2022-09-21T05:25:09.833Z,6.8
2022-09-21T05:26:09.112Z,6.9
2022-09-21T05:27:09.107Z,6.9
2022-09-21T05:28:09.220Z,6.8
2022-09-21T05:29:12.563Z,6.7
2022-09-21T05:30:09.214Z,6.8
2022-09-21T05:31:17.523Z,6.8
2022-09-21T05:32:09.647Z,6.7
2022-09-21T05:33:09.650Z,6.8
2022-09-21T05:34:09.516Z,6.6
2022-09-21T05:35:09.548Z,6.5
2022-09-21T05:36:11.601Z,6.4
2022-09-21T05:37:10.156Z,6.3
2022-09-21T05:38:09.695Z,6.3
2022-09-21T05:39:09.779Z,6.3
2022-09-21T05:40:09.941Z,6.4
2022-09-21T05:41:10.769Z,6.4
2022-09-21T05:42:10.141Z,6.5
2022-09-21T05:43:10.132Z,6.5
2022-09-21T05:44:10.064Z,6.6
2022-09-21T05:45:10.054Z,6.5
2022-09-21T05:46:11.953Z,6.5
2022-09-21T05:47:11.790Z,6.4
2022-09-21T05:48:11.613Z,6.4
2022-09-21T05:49:11.806Z,6.4
2022-09-21T05:50:11.610Z,6.4
2022-09-21T05:51:10.571Z,6.3
2022-09-21T05:52:10.898Z,6.3
2022-09-21T05:53:11.506Z,6.3
2022-09-21T05:54:10.695Z,6.3
2022-09-21T05:55:10.479Z,6.3
2022-09-21T05:56:11.230Z,6.3
2022-09-21T05:57:11.701Z,6.3
2022-09-21T05:58:10.802Z,6.3
2022-09-21T05:59:10.617Z,6.2
2022-09-21T06:00:12.584Z,6.2
2022-09-21T06:01:10.779Z,6.3
2022-09-21T06:02:10.777Z,6.2
2022-09-21T06:03:13.275Z,6.2
2022-09-21T06:04:10.764Z,6.3
2022-09-21T06:05:12.945Z,6.2
2022-09-21T06:06:11.103Z,6.2
2022-09-21T06:07:10.883Z,6.2
2022-09-21T06:08:10.933Z,6.3
2022-09-21T06:09:10.950Z,6.3
2022-09-21T06:10:12.711Z,6.3
2022-09-21T06:11:11.838Z,6.3
2022-09-21T06:12:16.054Z,6.4
2022-09-21T06:13:11.062Z,6.5
2022-09-21T06:14:16.118Z,6.7
2022-09-21T06:15:11.220Z,6.6
2022-09-21T06:16:16.258Z,6.5
2022-09-21T06:17:13.893Z,6.5
2022-09-21T06:18:14.319Z,6.6
2022-09-21T06:19:11.813Z,6.7
2022-09-21T06:20:11.396Z,6.8
2022-09-21T06:21:17.728Z,6.7
2022-09-21T06:22:11.407Z,6.6
2022-09-21T06:23:11.807Z,6.7
2022-09-21T06:24:11.931Z,6.8
2022-09-21T06:25:11.611Z,7
2022-09-21T06:26:11.517Z,6.9
2022-09-21T06:27:11.548Z,7
2022-09-21T06:28:11.643Z,7.2
2022-09-21T06:29:11.661Z,7.3
2022-09-21T06:30:11.679Z,7.3
2022-09-21T06:31:17.256Z,7.3
2022-09-21T06:32:12.769Z,7.4
2022-09-21T06:33:12.498Z,7.5
2022-09-21T06:34:12.723Z,7.5
2022-09-21T06:35:12.901Z,7.5
2022-09-21T06:36:12.364Z,7.7
2022-09-21T06:37:12.012Z,7.6
2022-09-21T06:38:12.240Z,7.9
2022-09-21T06:39:16.789Z,7.8
2022-09-21T06:40:13.795Z,7.8
2022-09-21T06:41:17.398Z,7.8
2022-09-21T06:42:17.219Z,7.9
2022-09-21T06:43:12.236Z,7.9
2022-09-21T06:44:12.338Z,8
2022-09-21T06:45:12.674Z,8.2
2022-09-21T06:46:12.437Z,8.3
2022-09-21T06:47:12.694Z,8.4
2022-09-21T06:48:14.770Z,8.3
2022-09-21T06:49:14.139Z,8.4
2022-09-21T06:50:14.411Z,8.4
2022-09-21T06:51:17.465Z,8.5
2022-09-21T06:52:13.805Z,8.5
2022-09-21T06:53:12.922Z,8.5
2022-09-21T06:54:13.017Z,8.7
2022-09-21T06:55:18.888Z,8.8
2022-09-21T06:56:13.388Z,8.8
2022-09-21T06:57:13.494Z,8.8
2022-09-21T06:58:14.205Z,8.8
2022-09-21T06:59:13.240Z,8.9
2022-09-21T07:00:13.829Z,9
2022-09-21T07:01:13.434Z,9.1
2022-09-21T07:02:14.703Z,9.1
2022-09-21T07:03:15.591Z,9.2
2022-09-21T07:04:20.895Z,9.2
2022-09-21T07:05:19.709Z,9.4
2022-09-21T07:06:13.468Z,9.4
2022-09-21T07:07:13.773Z,9.5
2022-09-21T07:10:18.592Z,9.5
2022-09-21T07:11:14.841Z,9.6
2022-09-21T07:12:13.634Z,9.6
2022-09-21T07:13:13.647Z,9.7
2022-09-21T07:14:14.943Z,9.8
2022-09-21T07:15:16.446Z,9.7
2022-09-21T07:16:15.440Z,9.7
2022-09-21T07:17:19.825Z,9.7
2022-09-21T07:18:16.113Z,9.5
2022-09-21T07:19:14.099Z,9.5
2022-09-21T07:20:14.625Z,9.5
2022-09-21T07:21:15.053Z,9.7
2022-09-21T07:22:18.981Z,9.8
2022-09-21T07:23:16.642Z,9.8
2022-09-21T07:24:24.035Z,9.7
2022-09-21T07:25:14.086Z,9.8
2022-09-21T07:26:14.146Z,10.1
2022-09-21T07:27:15.162Z,10.1
2022-09-21T07:28:14.986Z,10.2
2022-09-21T07:29:14.613Z,10.2
2022-09-21T07:30:14.255Z,10.3
2022-09-21T07:31:19.698Z,10.4
2022-09-21T07:32:14.557Z,10.3
2022-09-21T07:33:15.009Z,10.4
2022-09-21T07:34:24.743Z,10.4
2022-09-21T07:35:14.433Z,10.4
2022-09-21T07:36:15.641Z,10.4
2022-09-21T07:37:15.727Z,10.3
2022-09-21T07:38:17.940Z,10.4
2022-09-21T07:39:19.530Z,10.6
2022-09-21T07:40:14.883Z,10.8
2022-09-21T07:41:14.599Z,10.9
2022-09-21T07:42:14.655Z,10.8
2022-09-21T07:43:14.823Z,10.7
2022-09-21T07:44:19.741Z,10.7
2022-09-21T07:45:15.018Z,10.6
2022-09-21T07:46:19.776Z,10.6
2022-09-21T07:47:14.911Z,10.4
2022-09-21T07:48:15.339Z,10.4
2022-09-21T07:49:16.038Z,10
2022-09-21T07:50:14.973Z,10.1
2022-09-21T07:51:15.108Z,10.4
2022-09-21T07:52:16.800Z,10.6
2022-09-21T07:53:15.894Z,10.9
2022-09-21T07:54:15.182Z,10.9
2022-09-21T07:55:20.215Z,11
2022-09-21T07:56:15.662Z,11
2022-09-21T07:57:16.694Z,10.9
2022-09-21T07:58:16.144Z,10.8
2022-09-21T07:59:16.709Z,10.7
2022-09-21T08:00:20.591Z,10.6
2022-09-21T08:01:15.702Z,10.7
2022-09-21T08:02:16.322Z,10.9
2022-09-21T08:03:16.717Z,11
2022-09-21T08:04:15.998Z,11
2022-09-21T08:05:16.702Z,10.7
2022-09-21T08:06:15.924Z,11
2022-09-21T08:07:20.993Z,11.3
2022-09-21T08:08:16.342Z,10.9
2022-09-21T08:09:16.749Z,10.9
2022-09-21T08:10:18.396Z,10.9
2022-09-21T08:11:16.268Z,11.1
2022-09-21T08:12:16.376Z,11.2
2022-09-21T08:13:16.254Z,11
2022-09-21T08:14:16.308Z,11.2
2022-09-21T08:15:30.874Z,11.1
2022-09-21T08:16:25.072Z,10.8
2022-09-21T08:17:17.891Z,10.9
2022-09-21T08:18:20.601Z,11.3
2022-09-21T08:19:16.516Z,11.5
2022-09-21T08:20:16.766Z,11.4
2022-09-21T08:21:16.545Z,11.2
2022-09-21T08:22:18.870Z,11.5
2022-09-21T08:23:16.599Z,12
2022-09-21T08:24:16.905Z,12.1
2022-09-21T08:25:16.660Z,12.2
2022-09-21T08:26:16.763Z,12.1
2022-09-21T08:27:16.831Z,12
2022-09-21T08:28:17.415Z,11.6
2022-09-21T08:29:17.097Z,11.5
2022-09-21T08:30:16.961Z,11.8
2022-09-21T08:31:16.896Z,11.9
2022-09-21T08:32:33.278Z,12.1
2022-09-21T08:33:17.885Z,12.2
2022-09-21T08:34:17.338Z,11.8
2022-09-21T08:35:21.990Z,11.6
2022-09-21T08:36:19.516Z,11.5
2022-09-21T08:37:18.907Z,11.6
2022-09-21T08:38:17.120Z,11.8
2022-09-21T08:39:18.841Z,11.9
2022-09-21T08:40:18.796Z,12.3
2022-09-21T08:41:17.238Z,12.4
2022-09-21T08:42:19.906Z,12.3
2022-09-21T08:43:17.295Z,12.2
2022-09-21T08:44:18.964Z,12.3
2022-09-21T08:45:17.353Z,12.2
2022-09-21T08:46:21.203Z,11.8
2022-09-21T08:48:53.591Z,12
2022-09-21T08:49:17.733Z,12.3
2022-09-21T08:50:18.924Z,12.4
2022-09-21T08:51:17.551Z,12.5
2022-09-21T08:52:18.937Z,12.5
2022-09-21T08:53:19.027Z,12.7
2022-09-21T08:54:18.944Z,12.8
2022-09-21T08:55:17.935Z,13.1
2022-09-21T08:56:17.808Z,13.1
2022-09-21T08:57:18.093Z,12.9
2022-09-21T08:58:17.824Z,13
2022-09-21T08:59:17.936Z,12.7
2022-09-21T09:00:17.865Z,12.6
2022-09-21T09:01:18.010Z,12.8
2022-09-21T09:02:18.145Z,13.2
2022-09-21T09:03:18.383Z,13.1
2022-09-21T09:04:18.481Z,13.1
2022-09-21T09:05:18.631Z,13
2022-09-21T09:06:18.252Z,12.9
2022-09-21T09:07:18.323Z,12.7
2022-09-21T09:08:18.351Z,13
2022-09-21T09:09:18.711Z,13.1
2022-09-21T09:10:19.058Z,13.3
2022-09-21T09:11:18.578Z,13.3
2022-09-21T09:12:19.599Z,13.3
2022-09-21T09:13:18.727Z,13.4
2022-09-21T09:14:18.745Z,13.3
2022-09-21T09:15:19.264Z,13.2
2022-09-21T09:16:20.883Z,13.3
2022-09-21T09:17:24.969Z,13.1
2022-09-21T09:18:18.965Z,13.4
2022-09-21T09:19:18.960Z,13.5
2022-09-21T09:20:19.013Z,13.6
2022-09-21T09:21:26.919Z,13.5
2022-09-21T09:22:25.866Z,13.6
2022-09-21T09:23:24.138Z,13.8
2022-09-21T09:24:19.483Z,14
2022-09-21T09:25:19.214Z,13.7
2022-09-21T09:26:19.838Z,14
2022-09-21T09:27:19.261Z,14.1
2022-09-21T09:28:19.339Z,14.1
2022-09-21T09:29:19.315Z,14.1
2022-09-21T09:30:20.771Z,14.3
2022-09-21T09:31:20.856Z,14.3
2022-09-21T09:32:21.220Z,14.3
2022-09-21T09:33:29.096Z,14.5
2022-09-21T09:34:19.754Z,14.6
2022-09-21T09:35:21.256Z,14.6
2022-09-21T09:36:34.960Z,14.6
2022-09-21T09:37:20.741Z,14.4
2022-09-21T09:38:20.687Z,14.7
2022-09-21T09:39:21.864Z,14.9
2022-09-21T09:40:19.770Z,15
2022-09-21T09:41:21.422Z,14.4
2022-09-21T09:42:19.810Z,14.5
2022-09-21T09:43:20.259Z,14.7
2022-09-21T09:44:20.980Z,14.9
2022-09-21T09:45:23.565Z,15
2022-09-21T09:46:20.595Z,15.2
2022-09-21T09:47:21.892Z,14.9
2022-09-21T09:48:20.759Z,15
2022-09-21T09:49:20.013Z,15.3
2022-09-21T09:50:20.333Z,15.3
2022-09-21T09:51:21.894Z,15.1
2022-09-21T09:52:20.337Z,15.4
2022-09-21T09:53:22.491Z,15.8
2022-09-21T09:54:20.916Z,16
2022-09-21T09:55:20.840Z,16.1
2022-09-21T09:56:20.213Z,16
2022-09-21T09:57:20.304Z,16.1
2022-09-21T09:58:22.717Z,16.2
2022-09-21T09:59:20.818Z,16.3
2022-09-21T10:00:20.496Z,16.8
2022-09-21T10:01:20.500Z,16.9
2022-09-21T10:02:20.491Z,16.5
2022-09-21T10:03:20.957Z,16
2022-09-21T10:04:22.867Z,15.8
2022-09-21T10:05:21.799Z,16
2022-09-21T10:06:20.995Z,15.9
2022-09-21T10:07:20.871Z,16.1
2022-09-21T10:08:20.820Z,16.2
2022-09-21T10:09:20.681Z,16.5
2022-09-21T10:10:20.812Z,16.4
2022-09-21T10:11:23.092Z,16.4
2022-09-21T10:12:22.898Z,16.8
2022-09-21T10:13:21.014Z,16.9
2022-09-21T10:14:20.949Z,16.8
2022-09-21T10:15:21.018Z,16.5
2022-09-21T10:16:21.067Z,16.5
2022-09-21T10:17:21.285Z,16.6
2022-09-21T10:18:22.794Z,16.6
2022-09-21T10:19:22.729Z,16.7
2022-09-21T10:20:21.489Z,16.9
2022-09-21T10:21:21.837Z,17
2022-09-21T10:22:21.352Z,16.9
2022-09-21T10:23:22.875Z,17.3
2022-09-21T10:24:21.529Z,17.4
2022-09-21T10:25:23.709Z,17.3
2022-09-21T10:26:23.824Z,16.9
2022-09-21T10:27:21.615Z,16.7
2022-09-21T10:28:22.724Z,16.9
2022-09-21T10:29:23.676Z,16.7
2022-09-21T10:30:23.402Z,16.8
2022-09-21T10:31:21.921Z,16.9
2022-09-21T10:32:21.870Z,17.3
2022-09-21T10:33:22.270Z,17.5
2022-09-21T10:34:23.823Z,17.4
2022-09-21T10:35:23.885Z,18
2022-09-21T10:36:22.005Z,17.8
2022-09-21T10:37:22.768Z,17.6
2022-09-21T10:38:22.927Z,17.7
2022-09-21T10:39:22.147Z,17.8
2022-09-21T10:40:24.332Z,17.5
2022-09-21T10:41:23.016Z,17.8
2022-09-21T10:42:22.888Z,18.3
2022-09-21T10:43:22.236Z,18.8
2022-09-21T10:44:24.659Z,18.9
2022-09-21T10:45:22.950Z,18.9
2022-09-21T10:46:23.121Z,19.1
2022-09-21T10:47:23.550Z,19
2022-09-21T10:48:23.507Z,19.1
2022-09-21T10:49:22.366Z,19.5
2022-09-21T10:50:30.561Z,19.7
2022-09-21T10:51:22.541Z,19
2022-09-21T10:52:27.498Z,18.7
2022-09-21T10:53:22.734Z,18.3
2022-09-21T10:54:24.873Z,18.2
2022-09-21T10:55:22.941Z,18.5
2022-09-21T10:56:23.050Z,18.6
2022-09-21T10:57:23.254Z,18.7
2022-09-21T10:58:22.732Z,18.5
2022-09-21T10:59:23.792Z,18.9
2022-09-21T11:00:22.751Z,19.1
2022-09-21T11:01:23.356Z,18.7
2022-09-21T11:02:22.834Z,18.8
2022-09-21T11:03:23.680Z,19
2022-09-21T11:04:23.720Z,20
2022-09-21T11:05:24.267Z,20.3
2022-09-21T11:06:24.733Z,20
2022-09-21T11:07:24.666Z,20
2022-09-21T11:08:24.806Z,20.1
2022-09-21T11:09:23.155Z,20
2022-09-21T11:10:24.755Z,19.7
2022-09-21T11:11:23.595Z,19.3
2022-09-21T11:12:25.298Z,19
2022-09-21T11:13:23.791Z,19.2
2022-09-21T11:14:23.700Z,20.5
2022-09-21T11:15:23.334Z,20.2
2022-09-21T11:16:23.378Z,20.2
2022-09-21T11:17:24.662Z,20.2
2022-09-21T11:18:24.515Z,19.8
2022-09-21T11:19:23.529Z,19.4
2022-09-21T11:20:23.535Z,19.5
2022-09-21T11:21:25.793Z,19
2022-09-21T11:22:23.487Z,18.9
2022-09-21T11:23:23.553Z,19.2
2022-09-21T11:24:23.547Z,19.6
2022-09-21T11:25:24.668Z,19.4
2022-09-21T11:26:23.594Z,19.6
2022-09-21T11:27:23.702Z,19.5
2022-09-21T11:28:24.065Z,19.7
2022-09-21T11:30:23.889Z,20
2022-09-21T11:31:23.986Z,20.5
2022-09-21T11:32:24.252Z,20.5
2022-09-21T11:33:24.094Z,20.2
2022-09-21T11:34:24.209Z,19.7
2022-09-21T11:35:24.438Z,19.9
2022-09-21T11:36:24.366Z,19.5
2022-09-21T11:37:24.660Z,19.5
2022-09-21T11:38:24.559Z,18.6
2022-09-21T11:39:24.723Z,18.7
2022-09-21T11:40:24.929Z,19.1
2022-09-21T11:41:24.574Z,19.2
2022-09-21T11:42:24.842Z,19.5
2022-09-21T11:43:25.701Z,19.3
2022-09-21T11:44:26.727Z,19.5
2022-09-21T11:45:25.757Z,19.7
2022-09-21T11:46:27.535Z,19.6
2022-09-21T11:47:24.844Z,19.7
2022-09-21T11:48:25.031Z,19.5
2022-09-21T11:49:26.984Z,19.8
2022-09-21T11:50:32.120Z,20
2022-09-21T11:51:26.602Z,20.1
2022-09-21T11:52:26.642Z,20
2022-09-21T11:53:26.377Z,20.1
2022-09-21T11:54:25.261Z,20.3
2022-09-21T11:55:26.089Z,20.5
2022-09-21T11:56:26.412Z,20.4
2022-09-21T11:57:25.191Z,20.2
2022-09-21T11:58:27.088Z,19.9
2022-09-21T11:59:27.567Z,19.6
2022-09-21T12:00:25.690Z,19.6
2022-09-21T12:01:25.690Z,19.7
2022-09-21T12:02:25.978Z,19.4
2022-09-21T12:03:27.777Z,19.5
2022-09-21T12:04:25.898Z,19.4
2022-09-21T12:05:25.969Z,19.5
2022-09-21T12:06:28.989Z,19.8
2022-09-21T12:07:28.362Z,20
2022-09-21T12:08:25.954Z,20
2022-09-21T12:09:26.814Z,20.1
2022-09-21T12:10:28.769Z,20.2
2022-09-21T12:11:28.821Z,20.4
2022-09-21T12:12:26.138Z,20.3
2022-09-21T12:13:28.582Z,20.4
2022-09-21T12:14:26.466Z,20.6
2022-09-21T12:15:26.639Z,20.4
2022-09-21T12:16:26.216Z,20.3
2022-09-21T12:17:30.927Z,20.3
2022-09-21T12:18:26.424Z,20.2
2022-09-21T12:19:26.373Z,20.5
2022-09-21T12:20:28.301Z,20.6
2022-09-21T12:21:30.474Z,20.3
2022-09-21T12:22:29.217Z,20.6
2022-09-21T12:23:26.747Z,20.7
2022-09-21T12:24:31.119Z,20.7
2022-09-21T12:25:30.200Z,20.3
2022-09-21T12:26:27.777Z,20.3
2022-09-21T12:27:26.631Z,20.4
2022-09-21T12:28:26.678Z,20.9
2022-09-21T12:29:30.353Z,21.2
2022-09-21T12:30:26.783Z,21.3
2022-09-21T12:31:27.804Z,21.2
2022-09-21T12:32:26.623Z,21.1
2022-09-21T12:33:28.619Z,21.3
2022-09-21T12:34:28.939Z,21.3
2022-09-21T12:35:26.739Z,21.2
2022-09-21T12:36:26.755Z,21.2
2022-09-21T12:37:26.775Z,21
2022-09-21T12:38:28.924Z,20.9
2022-09-21T12:39:27.185Z,20.9
2022-09-21T12:40:27.195Z,20.7
2022-09-21T12:41:27.053Z,20.2
2022-09-21T12:42:27.429Z,20.1
2022-09-21T12:43:30.623Z,20.5
2022-09-21T12:44:27.266Z,20.6
2022-09-21T12:45:27.341Z,20.7
2022-09-21T12:46:28.133Z,20.8
2022-09-21T12:47:27.518Z,20.5
2022-09-21T12:48:29.086Z,20.9
2022-09-21T12:49:30.177Z,21
2022-09-21T12:50:27.689Z,21.1
2022-09-21T12:51:27.708Z,21.2
2022-09-21T12:52:32.359Z,21.3
2022-09-21T12:53:29.732Z,21.2
2022-09-21T12:54:27.891Z,20.7
2022-09-21T12:55:28.016Z,20.7
2022-09-21T12:56:28.184Z,21
2022-09-21T12:57:45.929Z,21.4
2022-09-21T12:58:36.780Z,20.9
2022-09-21T12:59:30.263Z,20.6
2022-09-21T13:00:29.027Z,20.7
2022-09-21T13:03:11.629Z,20.9
2022-09-21T13:03:28.245Z,20.8
2022-09-21T13:04:28.852Z,20.9
2022-09-21T13:05:30.575Z,20.8
2022-09-21T13:06:28.246Z,20.6
2022-09-21T13:07:34.796Z,20.5
2022-09-21T13:08:29.645Z,20.8
2022-09-21T13:09:29.905Z,20.7
2022-09-21T13:10:29.440Z,20.6
2022-09-21T13:11:28.450Z,20.4
2022-09-21T13:12:28.459Z,19.9
2022-09-21T13:13:29.291Z,19.5
2022-09-21T13:14:28.522Z,19.4
2022-09-21T13:15:28.906Z,19.8
2022-09-21T13:16:28.857Z,19.8
2022-09-21T13:17:29.245Z,19.8
2022-09-21T13:18:35.216Z,19.9
2022-09-21T13:19:32.226Z,19.6
2022-09-21T13:20:28.957Z,19.6
2022-09-21T13:21:46.400Z,19.7
2022-09-21T13:22:29.145Z,19.9
2022-09-21T13:23:33.312Z,20.2
2022-09-21T13:24:31.842Z,19.8
2022-09-21T13:25:31.049Z,19.3
2022-09-21T13:26:29.173Z,19
2022-09-21T13:27:31.831Z,18.4
2022-09-21T13:28:31.311Z,18.2
2022-09-21T13:29:29.041Z,18.3
2022-09-21T13:30:34.234Z,18.8
2022-09-21T13:31:40.201Z,19.2
2022-09-21T13:32:29.516Z,19.2
2022-09-21T13:33:31.502Z,19
2022-09-21T13:34:38.125Z,19
2022-09-21T13:35:47.558Z,19
2022-09-21T13:36:30.193Z,18.9
2022-09-21T13:37:38.232Z,18.8
2022-09-21T13:38:38.980Z,18.6
2022-09-21T13:39:39.464Z,18.4
2022-09-21T13:40:37.920Z,18.3
2022-09-21T13:41:59.298Z,18.3
2022-09-21T13:42:38.037Z,18.5
2022-09-21T13:43:38.064Z,19
2022-09-21T13:44:38.123Z,19.5
2022-09-21T13:45:38.225Z,19.7
2022-09-21T13:46:40.629Z,19.5
2022-09-21T13:47:43.178Z,19.5